sensor_id;sensor_type;location;lat;lon;timestamp;temperature;humidity
66119;DHT22;52912;48.564;9.302;2024-01-06T00:01:48;5.98;96.80
66119;DHT22;52912;48.564;9.302;2024-01-06T00:04:13;6.00;97.26
66119;DHT22;52912;48.564;9.302;2024-01-06T00:06:39;6.01;97.66
66119;DHT22;52912;48.564;9.302;2024-01-06T00:09:04;6.01;97.26
66119;DHT22;52912;48.564;9.302;2024-01-06T00:11:30;6.00;97.75
66119;DHT22;52912;48.564;9.302;2024-01-06T00:13:55;6.03;97.73
66119;DHT22;52912;48.564;9.302;2024-01-06T00:16:22;6.01;97.87
66119;DHT22;52912;48.564;9.302;2024-01-06T00:18:47;5.94;97.95
66119;DHT22;52912;48.564;9.302;2024-01-06T00:21:13;5.90;98.26
66119;DHT22;52912;48.564;9.302;2024-01-06T00:23:39;5.90;98.55
66119;DHT22;52912;48.564;9.302;2024-01-06T00:26:05;5.91;98.46
66119;DHT22;52912;48.564;9.302;2024-01-06T00:28:30;5.93;98.53
66119;DHT22;52912;48.564;9.302;2024-01-06T00:30:56;5.91;98.68
66119;DHT22;52912;48.564;9.302;2024-01-06T00:33:23;5.93;98.67
66119;DHT22;52912;48.564;9.302;2024-01-06T00:35:48;5.87;98.72
66119;DHT22;52912;48.564;9.302;2024-01-06T00:38:14;5.83;98.97
66119;DHT22;52912;48.564;9.302;2024-01-06T00:40:39;5.86;99.26
66119;DHT22;52912;48.564;9.302;2024-01-06T00:43:05;5.81;99.22
66119;DHT22;52912;48.564;9.302;2024-01-06T00:45:30;5.81;99.20
66119;DHT22;52912;48.564;9.302;2024-01-06T00:47:56;5.80;99.56
66119;DHT22;52912;48.564;9.302;2024-01-06T00:50:23;5.76;99.32
66119;DHT22;52912;48.564;9.302;2024-01-06T00:52:49;5.71;99.33
66119;DHT22;52912;48.564;9.302;2024-01-06T00:55:14;5.76;99.38
66119;DHT22;52912;48.564;9.302;2024-01-06T00:57:40;5.76;99.31
66119;DHT22;52912;48.564;9.302;2024-01-06T01:00:06;5.77;99.27
66119;DHT22;52912;48.564;9.302;2024-01-06T01:02:32;5.73;99.28
66119;DHT22;52912;48.564;9.302;2024-01-06T01:04:57;5.67;99.37
66119;DHT22;52912;48.564;9.302;2024-01-06T01:07:24;5.69;99.22
66119;DHT22;52912;48.564;9.302;2024-01-06T01:09:49;5.67;99.60
66119;DHT22;52912;48.564;9.302;2024-01-06T01:12:15;5.66;99.55
66119;DHT22;52912;48.564;9.302;2024-01-06T01:14:40;5.63;99.58
66119;DHT22;52912;48.564;9.302;2024-01-06T01:17:06;5.63;98.47
66119;DHT22;52912;48.564;9.302;2024-01-06T01:19:31;5.63;98.39
66119;DHT22;52912;48.564;9.302;2024-01-06T01:21:57;5.62;96.70
66119;DHT22;52912;48.564;9.302;2024-01-06T01:24:23;5.60;96.13
66119;DHT22;52912;48.564;9.302;2024-01-06T01:26:49;5.60;96.10
66119;DHT22;52912;48.564;9.302;2024-01-06T01:29:15;5.62;95.43
66119;DHT22;52912;48.564;9.302;2024-01-06T01:31:40;5.60;95.25
66119;DHT22;52912;48.564;9.302;2024-01-06T01:34:06;5.60;95.64
66119;DHT22;52912;48.564;9.302;2024-01-06T01:36:31;5.62;95.85
66119;DHT22;52912;48.564;9.302;2024-01-06T01:38:56;5.63;95.71
66119;DHT22;52912;48.564;9.302;2024-01-06T01:41:25;5.63;95.18
66119;DHT22;52912;48.564;9.302;2024-01-06T01:43:50;5.60;95.02
66119;DHT22;52912;48.564;9.302;2024-01-06T01:46:15;5.59;95.14
66119;DHT22;52912;48.564;9.302;2024-01-06T01:48:41;5.59;95.98
66119;DHT22;52912;48.564;9.302;2024-01-06T01:51:07;5.52;95.60
66119;DHT22;52912;48.564;9.302;2024-01-06T01:53:34;5.50;96.12
66119;DHT22;52912;48.564;9.302;2024-01-06T01:56:00;5.49;96.67
66119;DHT22;52912;48.564;9.302;2024-01-06T01:58:29;5.48;96.66
66119;DHT22;52912;48.564;9.302;2024-01-06T02:00:55;5.48;97.12
66119;DHT22;52912;48.564;9.302;2024-01-06T02:03:21;5.50;96.84
66119;DHT22;52912;48.564;9.302;2024-01-06T02:05:47;5.49;97.19
66119;DHT22;52912;48.564;9.302;2024-01-06T02:08:13;5.43;97.09
66119;DHT22;52912;48.564;9.302;2024-01-06T02:10:38;5.41;97.04
66119;DHT22;52912;48.564;9.302;2024-01-06T02:13:08;5.41;97.50
66119;DHT22;52912;48.564;9.302;2024-01-06T02:15:35;5.46;97.50
66119;DHT22;52912;48.564;9.302;2024-01-06T02:18:00;5.42;97.18
66119;DHT22;52912;48.564;9.302;2024-01-06T02:20:27;5.45;97.01
66119;DHT22;52912;48.564;9.302;2024-01-06T02:22:55;5.43;96.39
66119;DHT22;52912;48.564;9.302;2024-01-06T02:25:20;5.34;95.60
66119;DHT22;52912;48.564;9.302;2024-01-06T02:27:46;5.34;95.89
66119;DHT22;52912;48.564;9.302;2024-01-06T02:30:12;5.35;96.30
66119;DHT22;52912;48.564;9.302;2024-01-06T02:32:37;5.32;96.44
66119;DHT22;52912;48.564;9.302;2024-01-06T02:35:03;5.34;96.55
66119;DHT22;52912;48.564;9.302;2024-01-06T02:37:28;5.36;96.44
66119;DHT22;52912;48.564;9.302;2024-01-06T02:39:55;5.30;96.66
66119;DHT22;52912;48.564;9.302;2024-01-06T02:42:20;5.31;96.69
66119;DHT22;52912;48.564;9.302;2024-01-06T02:44:46;5.31;96.91
66119;DHT22;52912;48.564;9.302;2024-01-06T02:47:11;5.31;96.64
66119;DHT22;52912;48.564;9.302;2024-01-06T02:49:37;5.28;96.80
66119;DHT22;52912;48.564;9.302;2024-01-06T02:52:03;5.20;96.91
66119;DHT22;52912;48.564;9.302;2024-01-06T02:54:28;5.18;97.43
66119;DHT22;52912;48.564;9.302;2024-01-06T02:56:55;5.21;97.29
66119;DHT22;52912;48.564;9.302;2024-01-06T02:59:20;5.21;97.42
66119;DHT22;52912;48.564;9.302;2024-01-06T03:01:46;5.18;97.88
66119;DHT22;52912;48.564;9.302;2024-01-06T03:04:11;5.13;97.60
66119;DHT22;52912;48.564;9.302;2024-01-06T03:06:37;5.08;97.28
66119;DHT22;52912;48.564;9.302;2024-01-06T03:09:02;5.08;97.58
66119;DHT22;52912;48.564;9.302;2024-01-06T03:11:28;5.11;97.55
66119;DHT22;52912;48.564;9.302;2024-01-06T03:13:54;5.08;97.51
66119;DHT22;52912;48.564;9.302;2024-01-06T03:16:20;5.10;97.57
66119;DHT22;52912;48.564;9.302;2024-01-06T03:18:45;5.10;97.67
66119;DHT22;52912;48.564;9.302;2024-01-06T03:21:16;5.07;98.00
66119;DHT22;52912;48.564;9.302;2024-01-06T03:23:42;5.04;98.06
66119;DHT22;52912;48.564;9.302;2024-01-06T03:26:07;5.00;98.36
66119;DHT22;52912;48.564;9.302;2024-01-06T03:28:33;4.97;98.25
66119;DHT22;52912;48.564;9.302;2024-01-06T03:31:00;4.94;98.26
66119;DHT22;52912;48.564;9.302;2024-01-06T03:33:25;4.98;98.58
66119;DHT22;52912;48.564;9.302;2024-01-06T03:35:50;5.00;98.59
66119;DHT22;52912;48.564;9.302;2024-01-06T03:38:16;5.00;98.51
66119;DHT22;52912;48.564;9.302;2024-01-06T03:40:41;4.97;98.44
66119;DHT22;52912;48.564;9.302;2024-01-06T03:43:07;4.97;98.61
66119;DHT22;52912;48.564;9.302;2024-01-06T03:45:32;4.98;98.59
66119;DHT22;52912;48.564;9.302;2024-01-06T03:47:59;4.90;99.15
66119;DHT22;52912;48.564;9.302;2024-01-06T03:50:24;4.88;98.83
66119;DHT22;52912;48.564;9.302;2024-01-06T03:52:50;4.86;98.71
66119;DHT22;52912;48.564;9.302;2024-01-06T03:55:15;4.84;98.60
66119;DHT22;52912;48.564;9.302;2024-01-06T03:57:41;4.84;98.91
66119;DHT22;52912;48.564;9.302;2024-01-06T04:00:07;4.86;99.11
66119;DHT22;52912;48.564;9.302;2024-01-06T04:02:33;4.86;98.90
66119;DHT22;52912;48.564;9.302;2024-01-06T04:05:00;4.84;99.40
66119;DHT22;52912;48.564;9.302;2024-01-06T04:07:25;4.86;99.24
66119;DHT22;52912;48.564;9.302;2024-01-06T04:09:51;4.86;99.51
66119;DHT22;52912;48.564;9.302;2024-01-06T04:12:16;4.87;99.24
66119;DHT22;52912;48.564;9.302;2024-01-06T04:14:42;4.86;99.20
66119;DHT22;52912;48.564;9.302;2024-01-06T04:17:07;4.80;99.10
66119;DHT22;52912;48.564;9.302;2024-01-06T04:19:32;4.80;99.53
66119;DHT22;52912;48.564;9.302;2024-01-06T04:21:59;4.79;99.55
66119;DHT22;52912;48.564;9.302;2024-01-06T04:24:25;4.81;99.56
66119;DHT22;52912;48.564;9.302;2024-01-06T04:26:50;4.83;99.56
66119;DHT22;52912;48.564;9.302;2024-01-06T04:29:16;4.80;99.56
66119;DHT22;52912;48.564;9.302;2024-01-06T04:31:41;4.81;99.36
66119;DHT22;52912;48.564;9.302;2024-01-06T04:34:07;4.86;99.16
66119;DHT22;52912;48.564;9.302;2024-01-06T04:36:32;4.83;99.31
66119;DHT22;52912;48.564;9.302;2024-01-06T04:38:59;4.83;99.38
66119;DHT22;52912;48.564;9.302;2024-01-06T04:41:24;4.79;99.41
66119;DHT22;52912;48.564;9.302;2024-01-06T04:43:50;4.79;99.61
66119;DHT22;52912;48.564;9.302;2024-01-06T04:46:15;4.79;99.66
66119;DHT22;52912;48.564;9.302;2024-01-06T04:48:41;4.76;99.58
66119;DHT22;52912;48.564;9.302;2024-01-06T04:51:06;4.77;99.58
66119;DHT22;52912;48.564;9.302;2024-01-06T04:53:32;4.77;99.48
66119;DHT22;52912;48.564;9.302;2024-01-06T04:55:59;4.75;99.34
66119;DHT22;52912;48.564;9.302;2024-01-06T04:58:24;4.79;99.34
66119;DHT22;52912;48.564;9.302;2024-01-06T05:00:49;4.79;99.61
66119;DHT22;52912;48.564;9.302;2024-01-06T05:03:15;4.81;99.35
66119;DHT22;52912;48.564;9.302;2024-01-06T05:05:40;4.77;99.39
66119;DHT22;52912;48.564;9.302;2024-01-06T05:08:06;4.80;99.12
66119;DHT22;52912;48.564;9.302;2024-01-06T05:10:31;4.77;99.33
66119;DHT22;52912;48.564;9.302;2024-01-06T05:12:58;4.77;99.20
66119;DHT22;52912;48.564;9.302;2024-01-06T05:15:23;4.79;99.38
66119;DHT22;52912;48.564;9.302;2024-01-06T05:17:49;4.77;99.32
66119;DHT22;52912;48.564;9.302;2024-01-06T05:20:14;4.72;99.69
66119;DHT22;52912;48.564;9.302;2024-01-06T05:22:40;4.70;99.56
66119;DHT22;52912;48.564;9.302;2024-01-06T05:25:05;4.72;99.71
66119;DHT22;52912;48.564;9.302;2024-01-06T05:27:31;4.69;99.61
66119;DHT22;52912;48.564;9.302;2024-01-06T05:29:58;4.70;99.42
66119;DHT22;52912;48.564;9.302;2024-01-06T05:32:23;4.70;99.47
66119;DHT22;52912;48.564;9.302;2024-01-06T05:34:49;4.72;99.32
66119;DHT22;52912;48.564;9.302;2024-01-06T05:37:14;4.72;99.44
66119;DHT22;52912;48.564;9.302;2024-01-06T05:39:40;4.69;99.56
66119;DHT22;52912;48.564;9.302;2024-01-06T05:42:05;4.69;99.25
66119;DHT22;52912;48.564;9.302;2024-01-06T05:44:31;4.70;99.54
66119;DHT22;52912;48.564;9.302;2024-01-06T05:46:58;4.69;99.76
66119;DHT22;52912;48.564;9.302;2024-01-06T05:49:23;4.62;99.95
66119;DHT22;52912;48.564;9.302;2024-01-06T05:51:48;4.69;99.86
66119;DHT22;52912;48.564;9.302;2024-01-06T05:54:14;4.68;99.21
66119;DHT22;52912;48.564;9.302;2024-01-06T05:56:39;4.60;98.64
66119;DHT22;52912;48.564;9.302;2024-01-06T05:59:05;4.63;98.82
66119;DHT22;52912;48.564;9.302;2024-01-06T06:01:30;4.63;99.03
66119;DHT22;52912;48.564;9.302;2024-01-06T06:03:57;4.65;98.97
66119;DHT22;52912;48.564;9.302;2024-01-06T06:06:22;4.66;99.31
66119;DHT22;52912;48.564;9.302;2024-01-06T06:08:48;4.66;99.27
66119;DHT22;52912;48.564;9.302;2024-01-06T06:11:13;4.66;99.31
66119;DHT22;52912;48.564;9.302;2024-01-06T06:13:40;4.69;99.39
66119;DHT22;52912;48.564;9.302;2024-01-06T06:16:06;4.69;99.56
66119;DHT22;52912;48.564;9.302;2024-01-06T06:18:31;4.66;99.33
66119;DHT22;52912;48.564;9.302;2024-01-06T06:20:58;4.68;99.30
66119;DHT22;52912;48.564;9.302;2024-01-06T06:23:24;4.63;99.59
66119;DHT22;52912;48.564;9.302;2024-01-06T06:25:49;4.63;99.61
66119;DHT22;52912;48.564;9.302;2024-01-06T06:28:14;4.65;99.57
66119;DHT22;52912;48.564;9.302;2024-01-06T06:30:40;4.68;99.74
66119;DHT22;52912;48.564;9.302;2024-01-06T06:33:05;4.68;99.76
66119;DHT22;52912;48.564;9.302;2024-01-06T06:35:31;4.69;99.59
66119;DHT22;52912;48.564;9.302;2024-01-06T06:37:57;4.70;99.66
66119;DHT22;52912;48.564;9.302;2024-01-06T06:40:23;4.63;99.80
66119;DHT22;52912;48.564;9.302;2024-01-06T06:42:48;4.63;99.91
66119;DHT22;52912;48.564;9.302;2024-01-06T06:45:14;4.60;99.79
66119;DHT22;52912;48.564;9.302;2024-01-06T06:47:40;4.59;99.67
66119;DHT22;52912;48.564;9.302;2024-01-06T06:50:05;4.58;99.97
66119;DHT22;52912;48.564;9.302;2024-01-06T06:52:31;4.59;99.99
66119;DHT22;52912;48.564;9.302;2024-01-06T06:54:58;4.62;99.89
66119;DHT22;52912;48.564;9.302;2024-01-06T06:57:23;4.58;99.75
66119;DHT22;52912;48.564;9.302;2024-01-06T06:59:49;4.55;99.84
66119;DHT22;52912;48.564;9.302;2024-01-06T07:02:14;4.49;99.75
66119;DHT22;52912;48.564;9.302;2024-01-06T07:04:40;4.55;99.87
66119;DHT22;52912;48.564;9.302;2024-01-06T07:07:05;4.53;99.63
66119;DHT22;52912;48.564;9.302;2024-01-06T07:09:30;4.52;99.69
66119;DHT22;52912;48.564;9.302;2024-01-06T07:11:58;4.51;99.88
66119;DHT22;52912;48.564;9.302;2024-01-06T07:14:23;4.48;99.93
66119;DHT22;52912;48.564;9.302;2024-01-06T07:16:48;4.45;99.95
66119;DHT22;52912;48.564;9.302;2024-01-06T07:19:14;4.45;99.79
66119;DHT22;52912;48.564;9.302;2024-01-06T07:21:40;4.46;99.99
66119;DHT22;52912;48.564;9.302;2024-01-06T07:24:05;4.49;99.99
66119;DHT22;52912;48.564;9.302;2024-01-06T07:26:31;4.44;99.99
66119;DHT22;52912;48.564;9.302;2024-01-06T07:28:57;4.45;99.99
66119;DHT22;52912;48.564;9.302;2024-01-06T07:31:23;4.46;99.89
66119;DHT22;52912;48.564;9.302;2024-01-06T07:33:48;4.42;99.86
66119;DHT22;52912;48.564;9.302;2024-01-06T07:36:14;4.45;99.83
66119;DHT22;52912;48.564;9.302;2024-01-06T07:38:39;4.49;99.80
66119;DHT22;52912;48.564;9.302;2024-01-06T07:41:06;4.46;99.61
66119;DHT22;52912;48.564;9.302;2024-01-06T07:43:31;4.45;99.36
66119;DHT22;52912;48.564;9.302;2024-01-06T07:45:58;4.49;99.43
66119;DHT22;52912;48.564;9.302;2024-01-06T07:48:24;4.48;99.41
66119;DHT22;52912;48.564;9.302;2024-01-06T07:50:49;4.46;99.44
66119;DHT22;52912;48.564;9.302;2024-01-06T07:53:15;4.48;99.38
66119;DHT22;52912;48.564;9.302;2024-01-06T07:55:40;4.46;99.39
66119;DHT22;52912;48.564;9.302;2024-01-06T07:58:06;4.51;99.29
66119;DHT22;52912;48.564;9.302;2024-01-06T08:00:31;4.53;99.19
66119;DHT22;52912;48.564;9.302;2024-01-06T08:02:58;4.53;99.05
66119;DHT22;52912;48.564;9.302;2024-01-06T08:05:23;4.56;99.49
66119;DHT22;52912;48.564;9.302;2024-01-06T08:07:50;4.60;99.31
66119;DHT22;52912;48.564;9.302;2024-01-06T08:10:16;4.59;99.42
66119;DHT22;52912;48.564;9.302;2024-01-06T08:12:42;4.63;99.07
66119;DHT22;52912;48.564;9.302;2024-01-06T08:15:08;4.65;98.82
66119;DHT22;52912;48.564;9.302;2024-01-06T08:17:33;4.65;98.99
66119;DHT22;52912;48.564;9.302;2024-01-06T08:20:00;4.62;98.61
66119;DHT22;52912;48.564;9.302;2024-01-06T08:22:25;4.72;98.65
66119;DHT22;52912;48.564;9.302;2024-01-06T08:24:51;4.68;98.36
66119;DHT22;52912;48.564;9.302;2024-01-06T08:27:16;4.69;98.20
66119;DHT22;52912;48.564;9.302;2024-01-06T08:29:42;4.73;98.20
66119;DHT22;52912;48.564;9.302;2024-01-06T08:32:07;4.75;97.71
66119;DHT22;52912;48.564;9.302;2024-01-06T08:34:33;4.65;97.75
66119;DHT22;52912;48.564;9.302;2024-01-06T08:37:00;4.75;97.54
66119;DHT22;52912;48.564;9.302;2024-01-06T08:39:25;4.73;97.50
66119;DHT22;52912;48.564;9.302;2024-01-06T08:41:50;4.77;97.51
66119;DHT22;52912;48.564;9.302;2024-01-06T08:44:16;4.73;97.19
66119;DHT22;52912;48.564;9.302;2024-01-06T08:46:41;4.72;96.87
66119;DHT22;52912;48.564;9.302;2024-01-06T08:49:07;4.73;96.99
66119;DHT22;52912;48.564;9.302;2024-01-06T08:51:32;4.80;96.17
66119;DHT22;52912;48.564;9.302;2024-01-06T08:53:59;4.93;96.21
66119;DHT22;52912;48.564;9.302;2024-01-06T08:56:25;4.96;95.40
66119;DHT22;52912;48.564;9.302;2024-01-06T08:58:51;5.00;95.71
66119;DHT22;52912;48.564;9.302;2024-01-06T09:01:16;5.04;95.64
66119;DHT22;52912;48.564;9.302;2024-01-06T09:03:42;5.14;95.66
66119;DHT22;52912;48.564;9.302;2024-01-06T09:06:07;5.28;95.09
66119;DHT22;52912;48.564;9.302;2024-01-06T09:08:33;5.27;94.70
66119;DHT22;52912;48.564;9.302;2024-01-06T09:10:59;5.32;94.66
66119;DHT22;52912;48.564;9.302;2024-01-06T09:13:25;5.41;93.56
66119;DHT22;52912;48.564;9.302;2024-01-06T09:15:50;5.42;93.47
66119;DHT22;52912;48.564;9.302;2024-01-06T09:18:16;5.39;93.24
66119;DHT22;52912;48.564;9.302;2024-01-06T09:20:41;5.53;93.16
66119;DHT22;52912;48.564;9.302;2024-01-06T09:23:07;5.46;92.80
66119;DHT22;52912;48.564;9.302;2024-01-06T09:25:32;5.36;93.49
66119;DHT22;52912;48.564;9.302;2024-01-06T09:27:59;5.41;93.02
66119;DHT22;52912;48.564;9.302;2024-01-06T09:30:24;5.48;93.74
66119;DHT22;52912;48.564;9.302;2024-01-06T09:32:50;5.45;93.54
66119;DHT22;52912;48.564;9.302;2024-01-06T09:35:15;5.49;93.69
66119;DHT22;52912;48.564;9.302;2024-01-06T09:37:41;5.53;93.59
66119;DHT22;52912;48.564;9.302;2024-01-06T09:40:11;5.55;93.47
66119;DHT22;52912;48.564;9.302;2024-01-06T09:42:37;5.58;93.53
66119;DHT22;52912;48.564;9.302;2024-01-06T09:45:04;5.67;93.27
66119;DHT22;52912;48.564;9.302;2024-01-06T09:47:32;5.67;92.95
66119;DHT22;52912;48.564;9.302;2024-01-06T09:50:01;5.81;93.23
66119;DHT22;52912;48.564;9.302;2024-01-06T09:52:27;5.74;93.17
66119;DHT22;52912;48.564;9.302;2024-01-06T09:54:55;5.77;92.91
66119;DHT22;52912;48.564;9.302;2024-01-06T09:57:21;5.84;92.12
66119;DHT22;52912;48.564;9.302;2024-01-06T09:59:47;5.80;92.07
66119;DHT22;52912;48.564;9.302;2024-01-06T10:02:16;5.78;92.13
66119;DHT22;52912;48.564;9.302;2024-01-06T10:04:41;5.77;92.05
66119;DHT22;52912;48.564;9.302;2024-01-06T10:07:07;5.73;92.14
66119;DHT22;52912;48.564;9.302;2024-01-06T10:09:32;5.80;91.47
66119;DHT22;52912;48.564;9.302;2024-01-06T10:11:58;5.89;91.00
66119;DHT22;52912;48.564;9.302;2024-01-06T10:14:23;5.84;91.29
66119;DHT22;52912;48.564;9.302;2024-01-06T10:16:49;5.81;90.67
66119;DHT22;52912;48.564;9.302;2024-01-06T10:19:16;5.83;91.06
66119;DHT22;52912;48.564;9.302;2024-01-06T10:21:42;5.84;91.25
66119;DHT22;52912;48.564;9.302;2024-01-06T10:24:08;5.84;90.76
66119;DHT22;52912;48.564;9.302;2024-01-06T10:26:33;5.86;90.05
66119;DHT22;52912;48.564;9.302;2024-01-06T10:28:59;5.93;89.98
66119;DHT22;52912;48.564;9.302;2024-01-06T10:31:25;5.94;90.39
66119;DHT22;52912;48.564;9.302;2024-01-06T10:33:50;5.95;90.03
66119;DHT22;52912;48.564;9.302;2024-01-06T10:36:17;5.90;89.76
66119;DHT22;52912;48.564;9.302;2024-01-06T10:38:44;5.95;90.03
66119;DHT22;52912;48.564;9.302;2024-01-06T10:41:11;5.86;90.25
66119;DHT22;52912;48.564;9.302;2024-01-06T10:43:37;5.86;90.37
66119;DHT22;52912;48.564;9.302;2024-01-06T10:46:03;5.86;89.86
66119;DHT22;52912;48.564;9.302;2024-01-06T10:48:30;5.91;89.92
66119;DHT22;52912;48.564;9.302;2024-01-06T10:50:57;6.01;89.45
66119;DHT22;52912;48.564;9.302;2024-01-06T10:53:26;6.03;89.52
66119;DHT22;52912;48.564;9.302;2024-01-06T10:55:52;6.08;90.11
66119;DHT22;52912;48.564;9.302;2024-01-06T10:58:18;6.15;89.73
66119;DHT22;52912;48.564;9.302;2024-01-06T11:00:43;6.20;89.73
66119;DHT22;52912;48.564;9.302;2024-01-06T11:03:09;6.22;89.87
66119;DHT22;52912;48.564;9.302;2024-01-06T11:05:35;6.31;89.48
66119;DHT22;52912;48.564;9.302;2024-01-06T11:08:01;6.21;89.16
66119;DHT22;52912;48.564;9.302;2024-01-06T11:10:29;6.12;89.18
66119;DHT22;52912;48.564;9.302;2024-01-06T11:13:11;6.20;89.72
66119;DHT22;52912;48.564;9.302;2024-01-06T11:15:44;6.24;89.51
66119;DHT22;52912;48.564;9.302;2024-01-06T11:18:30;6.24;89.04
66119;DHT22;52912;48.564;9.302;2024-01-06T11:21:18;6.17;88.98
66119;DHT22;52912;48.564;9.302;2024-01-06T11:23:44;6.18;88.84
66119;DHT22;52912;48.564;9.302;2024-01-06T11:26:13;6.21;88.99
66119;DHT22;52912;48.564;9.302;2024-01-06T11:28:44;6.24;89.08
66119;DHT22;52912;48.564;9.302;2024-01-06T11:31:09;6.24;89.43
66119;DHT22;52912;48.564;9.302;2024-01-06T11:33:41;6.29;89.68
66119;DHT22;52912;48.564;9.302;2024-01-06T11:36:08;6.25;89.42
66119;DHT22;52912;48.564;9.302;2024-01-06T11:38:37;6.25;89.06
66119;DHT22;52912;48.564;9.302;2024-01-06T11:41:03;6.26;88.97
66119;DHT22;52912;48.564;9.302;2024-01-06T11:43:29;6.24;90.08
66119;DHT22;52912;48.564;9.302;2024-01-06T11:45:57;6.20;90.39
66119;DHT22;52912;48.564;9.302;2024-01-06T11:48:24;6.05;89.69
66119;DHT22;52912;48.564;9.302;2024-01-06T11:51:10;6.10;90.40
66119;DHT22;52912;48.564;9.302;2024-01-06T11:53:36;6.12;90.09
66119;DHT22;52912;48.564;9.302;2024-01-06T11:56:02;6.14;90.26
66119;DHT22;52912;48.564;9.302;2024-01-06T11:58:29;6.11;89.37
66119;DHT22;52912;48.564;9.302;2024-01-06T12:00:55;6.04;89.02
66119;DHT22;52912;48.564;9.302;2024-01-06T12:03:20;6.05;89.83
66119;DHT22;52912;48.564;9.302;2024-01-06T12:05:59;6.10;90.38
66119;DHT22;52912;48.564;9.302;2024-01-06T12:08:24;6.10;90.17
66119;DHT22;52912;48.564;9.302;2024-01-06T12:10:50;6.12;90.86
66119;DHT22;52912;48.564;9.302;2024-01-06T12:13:15;6.10;90.72
66119;DHT22;52912;48.564;9.302;2024-01-06T12:15:42;6.07;90.53
66119;DHT22;52912;48.564;9.302;2024-01-06T12:18:07;6.11;91.00
66119;DHT22;52912;48.564;9.302;2024-01-06T12:20:33;6.15;90.77
66119;DHT22;52912;48.564;9.302;2024-01-06T12:22:58;6.08;90.66
66119;DHT22;52912;48.564;9.302;2024-01-06T12:25:25;6.14;90.80
66119;DHT22;52912;48.564;9.302;2024-01-06T12:27:52;6.15;90.55
66119;DHT22;52912;48.564;9.302;2024-01-06T12:30:18;6.26;90.08
66119;DHT22;52912;48.564;9.302;2024-01-06T12:32:46;6.24;89.88
66119;DHT22;52912;48.564;9.302;2024-01-06T12:35:12;6.35;90.08
66119;DHT22;52912;48.564;9.302;2024-01-06T12:37:37;6.40;89.22
66119;DHT22;52912;48.564;9.302;2024-01-06T12:40:03;6.36;89.78
66119;DHT22;52912;48.564;9.302;2024-01-06T12:42:29;6.31;90.36
66119;DHT22;52912;48.564;9.302;2024-01-06T12:44:54;6.24;89.87
66119;DHT22;52912;48.564;9.302;2024-01-06T12:47:20;6.26;89.72
66119;DHT22;52912;48.564;9.302;2024-01-06T12:49:47;6.17;89.59
66119;DHT22;52912;48.564;9.302;2024-01-06T12:52:12;6.17;89.84
66119;DHT22;52912;48.564;9.302;2024-01-06T12:54:39;6.21;89.95
66119;DHT22;52912;48.564;9.302;2024-01-06T12:57:04;6.21;90.03
66119;DHT22;52912;48.564;9.302;2024-01-06T12:59:30;6.21;89.90
66119;DHT22;52912;48.564;9.302;2024-01-06T13:01:55;6.25;89.68
66119;DHT22;52912;48.564;9.302;2024-01-06T13:04:21;6.22;89.96
66119;DHT22;52912;48.564;9.302;2024-01-06T13:06:48;6.17;89.94
66119;DHT22;52912;48.564;9.302;2024-01-06T13:09:13;6.20;89.53
66119;DHT22;52912;48.564;9.302;2024-01-06T13:11:39;6.21;89.78
66119;DHT22;52912;48.564;9.302;2024-01-06T13:14:04;6.08;90.07
66119;DHT22;52912;48.564;9.302;2024-01-06T13:16:30;6.18;90.16
66119;DHT22;52912;48.564;9.302;2024-01-06T13:18:55;6.14;90.50
66119;DHT22;52912;48.564;9.302;2024-01-06T13:21:21;6.10;90.57
66119;DHT22;52912;48.564;9.302;2024-01-06T13:23:47;6.14;91.56
66119;DHT22;52912;48.564;9.302;2024-01-06T13:26:13;6.14;91.18
66119;DHT22;52912;48.564;9.302;2024-01-06T13:28:38;6.15;91.40
66119;DHT22;52912;48.564;9.302;2024-01-06T13:31:05;6.08;90.98
66119;DHT22;52912;48.564;9.302;2024-01-06T13:33:31;6.07;91.54
66119;DHT22;52912;48.564;9.302;2024-01-06T13:35:56;6.04;91.38
66119;DHT22;52912;48.564;9.302;2024-01-06T13:38:23;6.00;91.19
66119;DHT22;52912;48.564;9.302;2024-01-06T13:40:50;6.08;91.49
66119;DHT22;52912;48.564;9.302;2024-01-06T13:43:15;5.98;91.81
66119;DHT22;52912;48.564;9.302;2024-01-06T13:45:42;6.00;92.07
66119;DHT22;52912;48.564;9.302;2024-01-06T13:48:07;6.07;92.27
66119;DHT22;52912;48.564;9.302;2024-01-06T13:50:33;6.12;91.76
66119;DHT22;52912;48.564;9.302;2024-01-06T13:52:58;6.12;91.40
66119;DHT22;52912;48.564;9.302;2024-01-06T13:55:24;6.05;91.95
66119;DHT22;52912;48.564;9.302;2024-01-06T13:57:50;6.04;92.47
66119;DHT22;52912;48.564;9.302;2024-01-06T14:00:16;5.97;91.69
66119;DHT22;52912;48.564;9.302;2024-01-06T14:02:42;5.95;91.88
66119;DHT22;52912;48.564;9.302;2024-01-06T14:05:08;5.95;92.49
66119;DHT22;52912;48.564;9.302;2024-01-06T14:07:33;5.94;92.67
66119;DHT22;52912;48.564;9.302;2024-01-06T14:09:59;5.86;92.88
66119;DHT22;52912;48.564;9.302;2024-01-06T14:12:28;5.80;92.73
66119;DHT22;52912;48.564;9.302;2024-01-06T14:14:56;5.78;92.93
66119;DHT22;52912;48.564;9.302;2024-01-06T14:17:21;5.77;92.91
66119;DHT22;52912;48.564;9.302;2024-01-06T14:19:47;5.80;92.89
66119;DHT22;52912;48.564;9.302;2024-01-06T14:22:13;5.78;92.98
66119;DHT22;52912;48.564;9.302;2024-01-06T14:24:38;5.77;92.91
66119;DHT22;52912;48.564;9.302;2024-01-06T14:27:04;5.74;93.26
66119;DHT22;52912;48.564;9.302;2024-01-06T14:29:29;5.66;94.35
66119;DHT22;52912;48.564;9.302;2024-01-06T14:31:56;5.63;94.58
66119;DHT22;52912;48.564;9.302;2024-01-06T14:34:22;5.65;94.76
66119;DHT22;52912;48.564;9.302;2024-01-06T14:36:47;5.58;94.95
66119;DHT22;52912;48.564;9.302;2024-01-06T14:39:13;5.58;95.01
66119;DHT22;52912;48.564;9.302;2024-01-06T14:41:38;5.59;95.09
66119;DHT22;52912;48.564;9.302;2024-01-06T14:44:04;5.53;95.28
66119;DHT22;52912;48.564;9.302;2024-01-06T14:46:29;5.55;95.32
66119;DHT22;52912;48.564;9.302;2024-01-06T14:48:56;5.59;95.07
66119;DHT22;52912;48.564;9.302;2024-01-06T14:51:21;5.66;95.17
66119;DHT22;52912;48.564;9.302;2024-01-06T14:53:47;5.59;94.89
66119;DHT22;52912;48.564;9.302;2024-01-06T14:56:12;5.65;95.21
66119;DHT22;52912;48.564;9.302;2024-01-06T14:58:38;5.63;94.99
66119;DHT22;52912;48.564;9.302;2024-01-06T15:01:04;5.58;95.20
66119;DHT22;52912;48.564;9.302;2024-01-06T15:03:30;5.58;95.10
66119;DHT22;52912;48.564;9.302;2024-01-06T15:05:57;5.55;95.06
66119;DHT22;52912;48.564;9.302;2024-01-06T15:08:22;5.52;94.88
66119;DHT22;52912;48.564;9.302;2024-01-06T15:10:48;5.55;94.60
66119;DHT22;52912;48.564;9.302;2024-01-06T15:13:13;5.52;94.87
66119;DHT22;52912;48.564;9.302;2024-01-06T15:15:39;5.52;94.60
66119;DHT22;52912;48.564;9.302;2024-01-06T15:18:05;5.50;94.69
66119;DHT22;52912;48.564;9.302;2024-01-06T15:20:30;5.43;94.86
66119;DHT22;52912;48.564;9.302;2024-01-06T15:22:57;5.48;94.99
66119;DHT22;52912;48.564;9.302;2024-01-06T15:25:23;5.42;95.09
66119;DHT22;52912;48.564;9.302;2024-01-06T15:27:48;5.46;95.22
66119;DHT22;52912;48.564;9.302;2024-01-06T15:30:14;5.43;94.86
66119;DHT22;52912;48.564;9.302;2024-01-06T15:32:41;5.43;94.89
66119;DHT22;52912;48.564;9.302;2024-01-06T15:35:08;5.38;95.13
66119;DHT22;52912;48.564;9.302;2024-01-06T15:37:33;5.35;95.39